createdAt,value
2023-03-28T00:01:01.596Z,18.89
2023-03-28T00:03:29.488Z,18.87
2023-03-28T00:06:02.280Z,18.87
2023-03-28T00:08:29.506Z,18.85
2023-03-28T00:11:12.514Z,18.84
2023-03-28T00:13:39.097Z,18.83
2023-03-28T00:16:08.977Z,18.83
2023-03-28T00:18:39.155Z,18.82
2023-03-28T00:21:29.226Z,18.78
2023-03-28T00:24:01.995Z,18.80
2023-03-28T00:26:32.370Z,18.79
2023-03-28T00:29:01.381Z,18.78
2023-03-28T00:31:28.447Z,18.77
2023-03-28T00:33:55.687Z,18.77
2023-03-28T00:36:26.400Z,18.76
2023-03-28T00:38:53.938Z,18.76
2023-03-28T00:41:22.441Z,18.74
2023-03-28T00:43:52.726Z,18.73
2023-03-28T00:46:29.914Z,18.72
2023-03-28T00:49:05.833Z,18.71
2023-03-28T00:51:37.382Z,18.71
2023-03-28T00:54:05.101Z,18.70
2023-03-28T00:56:36.935Z,18.68
2023-03-28T00:59:08.012Z,18.69
2023-03-28T01:01:35.524Z,18.67
2023-03-28T01:04:03.194Z,18.66
2023-03-28T01:06:37.779Z,18.65
2023-03-28T01:09:08.048Z,18.63
2023-03-28T01:11:39.245Z,18.62
2023-03-28T01:14:07.880Z,18.60
2023-03-28T01:16:42.143Z,18.58
2023-03-28T01:20:09.397Z,18.53
2023-03-28T01:23:09.708Z,18.54
2023-03-28T01:25:50.581Z,18.53
2023-03-28T01:28:56.307Z,18.50
2023-03-28T01:31:46.406Z,18.58
2023-03-28T01:34:34.877Z,18.66
2023-03-28T01:37:07.402Z,18.74
2023-03-28T01:40:07.894Z,18.82
2023-03-28T01:43:06.210Z,18.91
2023-03-28T01:45:44.882Z,18.98
2023-03-28T01:48:33.290Z,19.03
2023-03-28T01:51:10.833Z,19.04
2023-03-28T01:53:55.914Z,18.97
2023-03-28T01:56:37.449Z,18.88
2023-03-28T01:59:20.453Z,18.85
2023-03-28T02:02:35.392Z,18.86
2023-03-28T02:05:05.621Z,18.87
2023-03-28T02:07:33.847Z,18.85
2023-03-28T02:10:03.979Z,18.85
2023-03-28T02:12:36.759Z,18.84
2023-03-28T02:15:06.909Z,18.83
2023-03-28T02:17:38.286Z,18.81
2023-03-28T02:20:11.699Z,18.78
2023-03-28T02:22:47.174Z,18.76
2023-03-28T02:25:14.243Z,18.76
2023-03-28T02:27:43.069Z,18.73
2023-03-28T02:30:10.137Z,18.71
2023-03-28T02:32:36.750Z,18.68
2023-03-28T02:35:05.798Z,18.65
2023-03-28T02:38:07.787Z,18.61
2023-03-28T02:40:49.262Z,18.59
2023-03-28T02:43:27.742Z,18.57
2023-03-28T02:46:18.291Z,18.54
2023-03-28T02:48:52.272Z,18.53
2023-03-28T02:51:40.470Z,18.49
2023-03-28T02:54:34.768Z,18.48
2023-03-28T02:57:18.783Z,18.47
2023-03-28T03:00:19.151Z,18.41
2023-03-28T03:02:49.438Z,18.42
2023-03-28T03:05:17.639Z,18.40
2023-03-28T03:07:44.238Z,18.38
2023-03-28T03:10:12.111Z,18.42
2023-03-28T03:12:39.130Z,18.49
2023-03-28T03:15:07.251Z,18.57
2023-03-28T03:17:33.789Z,18.66
2023-03-28T03:20:06.605Z,18.77
2023-03-28T03:22:34.437Z,18.85
2023-03-28T03:25:08.159Z,18.91
2023-03-28T03:27:36.838Z,18.97
2023-03-28T03:30:04.799Z,18.97
2023-03-28T03:32:31.694Z,18.96
2023-03-28T03:34:58.566Z,18.89
2023-03-28T03:37:25.085Z,18.76
2023-03-28T03:39:51.582Z,18.66
2023-03-28T03:42:18.078Z,18.63
2023-03-28T03:44:44.575Z,18.63
2023-03-28T03:47:11.112Z,18.62
2023-03-28T03:49:38.101Z,18.60
2023-03-28T03:52:04.798Z,18.59
2023-03-28T03:54:31.356Z,18.58
2023-03-28T03:56:57.932Z,18.58
2023-03-28T03:59:24.667Z,18.57
2023-03-28T04:01:51.403Z,18.56
2023-03-28T04:04:17.971Z,18.55
2023-03-28T04:06:44.590Z,18.54
2023-03-28T04:09:11.458Z,18.52
2023-03-28T04:11:37.957Z,18.48
2023-03-28T04:14:04.720Z,18.46
2023-03-28T04:16:40.787Z,18.44
2023-03-28T04:19:08.241Z,18.42
2023-03-28T04:21:35.278Z,18.39
2023-03-28T04:24:01.943Z,18.39
2023-03-28T04:26:29.636Z,18.36
2023-03-28T04:28:57.213Z,18.34
2023-03-28T04:31:28.900Z,18.33
2023-03-28T04:33:56.277Z,18.30
2023-03-28T04:36:25.714Z,18.28
2023-03-28T04:38:52.578Z,18.26
2023-03-28T04:41:19.173Z,18.23
2023-03-28T04:43:45.765Z,18.22
2023-03-28T04:46:12.274Z,18.19
2023-03-28T04:48:38.838Z,18.17
2023-03-28T04:51:05.862Z,18.16
2023-03-28T04:53:32.549Z,18.14
2023-03-28T04:56:00.158Z,18.13
2023-03-28T04:58:26.913Z,18.11
2023-03-28T05:00:54.135Z,18.10
2023-03-28T05:03:23.066Z,18.11
2023-03-28T05:05:52.622Z,18.10
2023-03-28T05:08:22.569Z,18.12
2023-03-28T05:10:50.509Z,18.17
2023-03-28T05:13:17.460Z,18.24
2023-03-28T05:15:46.633Z,18.34
2023-03-28T05:18:13.206Z,18.41
2023-03-28T05:20:39.785Z,18.48
2023-03-28T05:23:06.539Z,18.55
2023-03-28T05:25:33.782Z,18.59
2023-03-28T05:28:01.425Z,18.62
2023-03-28T05:30:28.061Z,18.62
2023-03-28T05:32:54.785Z,18.55
2023-03-28T05:35:21.428Z,18.41
2023-03-28T05:37:47.942Z,18.37
2023-03-28T05:40:15.437Z,18.37
2023-03-28T05:42:42.733Z,18.36
2023-03-28T05:45:11.470Z,18.37
2023-03-28T05:47:38.148Z,18.38
2023-03-28T05:50:05.341Z,18.38
2023-03-28T05:52:31.841Z,18.38
2023-03-28T05:54:58.396Z,18.38
2023-03-28T05:57:25.552Z,18.38
2023-03-28T05:59:52.110Z,18.40
2023-03-28T06:02:20.580Z,18.40
2023-03-28T06:04:47.533Z,18.40
2023-03-28T06:07:14.773Z,18.40
2023-03-28T06:09:42.394Z,18.40
2023-03-28T06:12:09.138Z,18.42
2023-03-28T06:14:35.720Z,18.43
2023-03-28T06:17:02.358Z,18.46
2023-03-28T06:19:28.961Z,18.47
2023-03-28T06:21:55.489Z,18.50
2023-03-28T06:24:22.248Z,18.52
2023-03-28T06:26:48.820Z,18.53
2023-03-28T06:29:16.301Z,18.52
2023-03-28T06:31:43.031Z,18.52
2023-03-28T06:34:09.581Z,18.52
2023-03-28T06:36:36.102Z,18.52
2023-03-28T06:39:02.980Z,18.52
2023-03-28T06:41:29.565Z,18.53
2023-03-28T06:43:58.928Z,18.50
2023-03-28T06:46:25.531Z,18.49
2023-03-28T06:48:52.192Z,18.49
2023-03-28T06:51:18.670Z,18.48
2023-03-28T06:53:50.751Z,18.46
2023-03-28T06:56:17.320Z,18.44
2023-03-28T06:58:46.523Z,18.43
2023-03-28T07:01:13.114Z,18.43
2023-03-28T07:03:39.793Z,18.41
2023-03-28T07:06:08.146Z,18.42
2023-03-28T07:08:35.621Z,18.42
2023-03-28T07:11:02.542Z,18.41
2023-03-28T07:13:29.538Z,18.40
2023-03-28T07:16:03.761Z,18.39
2023-03-28T07:18:30.330Z,18.39
2023-03-28T07:21:03.854Z,18.40
2023-03-28T07:23:31.005Z,18.41
2023-03-28T07:25:57.531Z,18.41
2023-03-28T07:28:24.313Z,18.41
2023-03-28T07:30:54.178Z,18.42
2023-03-28T07:33:26.661Z,18.42
2023-03-28T07:36:00.706Z,18.42
2023-03-28T07:38:27.218Z,18.41
2023-03-28T07:40:53.726Z,18.42
2023-03-28T07:43:20.253Z,18.42
2023-03-28T07:45:47.681Z,18.42
2023-03-28T07:48:14.210Z,18.44
2023-03-28T07:50:42.918Z,18.44
2023-03-28T07:53:09.550Z,18.45
2023-03-28T07:58:08.867Z,18.45
2023-03-28T08:00:35.543Z,18.46
2023-03-28T08:03:02.161Z,18.49
2023-03-28T08:05:28.919Z,18.49
2023-03-28T08:07:55.476Z,18.49
2023-03-28T08:10:22.077Z,18.52
2023-03-28T08:12:48.694Z,18.54
2023-03-28T08:15:15.373Z,18.57
2023-03-28T08:17:41.998Z,18.59
2023-03-28T08:20:10.616Z,18.62
2023-03-28T08:22:37.515Z,18.66
2023-03-28T08:25:04.841Z,18.69
2023-03-28T08:27:31.447Z,18.73
2023-03-28T08:29:58.160Z,18.76
2023-03-28T08:32:25.381Z,18.79
2023-03-28T08:34:51.940Z,18.82
2023-03-28T08:37:19.142Z,18.83
2023-03-28T08:39:45.736Z,18.87
2023-03-28T08:42:18.251Z,18.88
2023-03-28T08:45:26.798Z,18.91
2023-03-28T08:48:22.203Z,18.94
2023-03-28T08:50:54.692Z,18.96
2023-03-28T08:53:34.292Z,18.98
2023-03-28T08:56:03.967Z,18.98
2023-03-28T08:58:42.472Z,19.00
2023-03-28T09:01:10.193Z,18.99
2023-03-28T09:03:36.938Z,18.98
2023-03-28T09:06:24.982Z,18.98
2023-03-28T09:09:00.769Z,18.98
2023-03-28T09:11:42.161Z,18.97
2023-03-28T09:14:17.382Z,18.98
2023-03-28T09:16:53.762Z,18.95
2023-03-28T09:19:48.248Z,18.95
2023-03-28T09:22:33.415Z,18.96
2023-03-28T09:25:37.699Z,18.95
2023-03-28T09:28:28.586Z,18.94
2023-03-28T09:30:58.615Z,18.94
2023-03-28T09:33:31.266Z,18.91
2023-03-28T09:35:57.826Z,18.91
2023-03-28T09:38:35.933Z,18.90
2023-03-28T09:41:11.154Z,18.91
2023-03-28T09:43:59.129Z,18.90
2023-03-28T09:46:48.700Z,18.89
2023-03-28T09:49:18.250Z,18.92
2023-03-28T09:51:45.649Z,18.91
2023-03-28T09:54:13.498Z,18.92
2023-03-28T09:56:43.477Z,18.93
2023-03-28T09:59:27.711Z,18.90
2023-03-28T10:01:57.651Z,18.92
2023-03-28T10:04:27.518Z,18.91
2023-03-28T10:07:09.808Z,18.91
2023-03-28T10:09:50.841Z,18.89
2023-03-28T10:12:35.727Z,18.89
2023-03-28T10:15:02.866Z,18.90
2023-03-28T10:17:34.771Z,18.88
2023-03-28T10:20:18.187Z,18.86
2023-03-28T10:22:47.530Z,18.86
2023-03-28T10:25:38.634Z,18.83
2023-03-28T10:28:07.297Z,18.84
2023-03-28T10:30:36.843Z,18.83
2023-03-28T10:33:15.149Z,18.83
2023-03-28T10:35:45.731Z,18.88
2023-03-28T10:38:18.150Z,18.93
2023-03-28T10:41:02.800Z,18.98
2023-03-28T10:43:33.005Z,19.03
2023-03-28T10:46:02.597Z,19.06
2023-03-28T10:48:33.667Z,19.10
2023-03-28T10:51:08.513Z,19.15
2023-03-28T10:54:08.817Z,19.18
2023-03-28T10:56:41.407Z,19.22
2023-03-28T10:59:20.514Z,19.26
2023-03-28T11:01:52.954Z,19.29
2023-03-28T11:04:28.105Z,19.30
2023-03-28T11:07:10.667Z,19.31
2023-03-28T11:09:45.874Z,19.36
2023-03-28T11:12:28.670Z,19.41
2023-03-28T11:15:23.956Z,19.45
2023-03-28T11:18:14.285Z,19.50
2023-03-28T11:20:54.406Z,19.57
2023-03-28T11:23:38.621Z,19.60
2023-03-28T11:26:28.172Z,19.66
2023-03-28T11:29:06.913Z,19.71
2023-03-28T11:31:41.277Z,19.73
2023-03-28T11:34:19.580Z,19.76
2023-03-28T11:36:55.519Z,19.76
2023-03-28T11:39:42.500Z,19.76
2023-03-28T11:42:39.705Z,19.72
2023-03-28T11:45:50.328Z,19.70
2023-03-28T11:48:19.270Z,19.67
2023-03-28T11:51:02.674Z,19.60
2023-03-28T11:53:35.880Z,19.56
2023-03-28T11:56:29.628Z,19.52
2023-03-28T11:59:06.141Z,19.46
2023-03-28T12:01:37.922Z,19.41
2023-03-28T12:04:27.446Z,19.34
2023-03-28T12:07:02.889Z,19.32
2023-03-28T12:09:33.295Z,19.31
2023-03-28T12:12:13.631Z,19.27
2023-03-28T12:14:55.339Z,19.27
2023-03-28T12:17:27.167Z,19.29
2023-03-28T12:19:54.061Z,19.30
2023-03-28T12:22:30.207Z,19.27
2023-03-28T12:25:13.760Z,19.23
2023-03-28T12:27:57.689Z,19.23
2023-03-28T12:30:51.636Z,19.23
2023-03-28T12:33:33.124Z,19.24
2023-03-28T12:36:17.710Z,19.24
2023-03-28T12:38:57.809Z,19.24
2023-03-28T12:41:38.064Z,19.26
2023-03-28T12:44:14.539Z,19.22
2023-03-28T12:47:04.610Z,19.19
2023-03-28T12:49:39.400Z,19.17
2023-03-28T12:52:07.885Z,19.16
2023-03-28T12:54:41.518Z,19.16
2023-03-28T12:57:07.951Z,19.17
2023-03-28T12:59:40.877Z,19.16
2023-03-28T13:02:18.469Z,19.16
2023-03-28T13:04:55.444Z,19.16
2023-03-28T13:08:00.963Z,19.14
2023-03-28T13:10:45.451Z,19.15
2023-03-28T13:13:32.046Z,19.16
2023-03-28T13:16:06.236Z,19.15
2023-03-28T13:18:34.568Z,19.15
2023-03-28T13:21:04.474Z,19.13
2023-03-28T13:23:33.465Z,19.12
2023-03-28T13:26:03.109Z,19.10
2023-03-28T13:28:31.736Z,19.09
2023-03-28T13:31:05.856Z,19.11
2023-03-28T13:33:35.364Z,19.12
2023-03-28T13:36:02.062Z,19.12
2023-03-28T13:38:28.831Z,19.13
2023-03-28T13:41:06.405Z,19.12
2023-03-28T13:43:40.018Z,19.12
2023-03-28T13:46:13.179Z,19.11
2023-03-28T13:49:19.076Z,19.08
2023-03-28T13:52:06.668Z,19.10
2023-03-28T13:54:33.565Z,19.08
2023-03-28T13:57:12.864Z,19.06
2023-03-28T13:59:55.602Z,19.05
2023-03-28T14:02:42.928Z,19.06
2023-03-28T14:05:12.551Z,19.09
2023-03-28T14:07:39.565Z,19.09
2023-03-28T14:10:28.725Z,19.09
2023-03-28T14:12:59.946Z,19.12
2023-03-28T14:15:31.427Z,19.13
2023-03-28T14:17:59.690Z,19.14
2023-03-28T14:20:26.764Z,19.13
2023-03-28T14:23:00.508Z,19.12
2023-03-28T14:25:28.600Z,19.12
2023-03-28T14:27:56.784Z,19.12
2023-03-28T14:30:29.943Z,19.11
2023-03-28T14:33:01.176Z,19.11
2023-03-28T14:35:32.569Z,19.11
2023-03-28T14:38:01.605Z,19.08
2023-03-28T14:40:34.731Z,19.07
2023-03-28T14:43:10.650Z,19.04
2023-03-28T14:45:41.092Z,19.03
2023-03-28T14:48:13.172Z,19.03
2023-03-28T14:50:42.087Z,19.04
2023-03-28T14:53:16.876Z,19.04
2023-03-28T14:55:44.051Z,19.04
2023-03-28T14:58:13.450Z,19.04
2023-03-28T15:00:46.819Z,19.03
2023-03-28T15:03:23.172Z,19.03
2023-03-28T15:05:52.220Z,19.05
2023-03-28T15:08:24.743Z,19.06
2023-03-28T15:10:54.478Z,19.05
2023-03-28T15:13:28.651Z,19.06
2023-03-28T15:15:56.884Z,19.06
2023-03-28T15:18:28.681Z,19.03
2023-03-28T15:20:58.866Z,19.04
2023-03-28T15:23:43.847Z,19.02
2023-03-28T15:26:35.613Z,19.08
2023-03-28T15:29:05.228Z,19.17
2023-03-28T15:31:32.720Z,19.24
2023-03-28T15:33:59.502Z,19.35
2023-03-28T15:36:32.182Z,19.43
2023-03-28T15:39:01.688Z,19.53
2023-03-28T15:41:34.280Z,19.62
2023-03-28T15:44:30.264Z,19.71
2023-03-28T15:47:00.850Z,19.80
2023-03-28T15:49:28.589Z,19.88
2023-03-28T15:52:01.658Z,19.98
2023-03-28T15:54:31.877Z,20.06
2023-03-28T15:57:02.144Z,20.13
2023-03-28T15:59:41.238Z,20.19
2023-03-28T16:02:28.562Z,20.26
2023-03-28T16:05:34.396Z,20.34
2023-03-28T16:08:02.361Z,20.42
2023-03-28T16:10:30.230Z,20.46
2023-03-28T16:12:57.582Z,20.49
2023-03-28T16:15:24.964Z,20.49
2023-03-28T16:17:51.947Z,20.51
2023-03-28T16:20:21.668Z,20.48
2023-03-28T16:22:48.805Z,20.46
2023-03-28T16:25:15.502Z,20.45
2023-03-28T16:27:42.776Z,20.43
2023-03-28T16:30:25.072Z,20.40
2023-03-28T16:32:51.676Z,20.40
2023-03-28T16:35:18.346Z,20.38
2023-03-28T16:37:44.894Z,20.35
2023-03-28T16:40:11.956Z,20.32
2023-03-28T16:42:38.557Z,20.30
2023-03-28T16:45:05.849Z,20.27
2023-03-28T16:47:32.427Z,20.27
2023-03-28T16:49:59.010Z,20.24
2023-03-28T16:52:27.795Z,20.21
2023-03-28T16:54:55.983Z,20.19
2023-03-28T16:57:22.603Z,20.14
2023-03-28T16:59:49.455Z,20.09
2023-03-28T17:02:16.082Z,20.04
2023-03-28T17:04:54.543Z,19.97
2023-03-28T17:07:21.108Z,19.92
2023-03-28T17:09:48.385Z,19.89
2023-03-28T17:12:14.968Z,19.83
2023-03-28T17:14:41.627Z,19.79
2023-03-28T17:17:08.422Z,19.78
2023-03-28T17:19:35.385Z,19.77
2023-03-28T17:22:02.624Z,19.75
2023-03-28T17:24:29.967Z,19.71
2023-03-28T17:26:56.600Z,19.69
2023-03-28T17:29:24.287Z,19.62
2023-03-28T17:31:51.611Z,19.57
2023-03-28T17:34:18.780Z,19.52
2023-03-28T17:36:45.427Z,19.52
2023-03-28T17:39:12.475Z,19.48
2023-03-28T17:41:38.998Z,19.47
2023-03-28T17:44:06.611Z,19.46
2023-03-28T17:46:33.651Z,19.46
2023-03-28T17:49:00.216Z,19.48
2023-03-28T17:51:27.197Z,19.48
2023-03-28T17:53:54.121Z,19.49
2023-03-28T17:56:21.458Z,19.51
2023-03-28T17:58:48.068Z,19.51
2023-03-28T18:01:17.068Z,19.51
2023-03-28T18:03:45.867Z,19.52
2023-03-28T18:06:13.313Z,19.52
2023-03-28T18:08:40.170Z,19.53
2023-03-28T18:11:09.568Z,19.54
2023-03-28T18:13:37.454Z,19.55
2023-03-28T18:16:06.561Z,19.55
2023-03-28T18:18:33.570Z,19.55
2023-03-28T18:21:00.302Z,19.55
2023-03-28T18:23:26.880Z,19.55
2023-03-28T18:25:53.765Z,19.55
2023-03-28T18:28:23.292Z,19.55
2023-03-28T18:30:51.184Z,19.53
2023-03-28T18:33:18.636Z,19.52
2023-03-28T18:35:48.822Z,19.51
2023-03-28T18:38:15.843Z,19.49
2023-03-28T18:40:42.697Z,19.48
2023-03-28T18:43:10.079Z,19.46
2023-03-28T18:45:37.502Z,19.46
2023-03-28T18:48:04.775Z,19.44
2023-03-28T18:50:31.321Z,19.44
2023-03-28T18:52:58.103Z,19.42
2023-03-28T18:55:24.808Z,19.42
2023-03-28T18:57:52.790Z,19.41
2023-03-28T19:00:20.383Z,19.40
2023-03-28T19:02:48.885Z,19.39
2023-03-28T19:05:16.693Z,19.38
2023-03-28T19:07:44.534Z,19.37
2023-03-28T19:10:14.413Z,19.36
2023-03-28T19:12:41.425Z,19.35
2023-03-28T19:15:10.437Z,19.35
2023-03-28T19:17:38.541Z,19.34
2023-03-28T19:20:07.889Z,19.33
2023-03-28T19:22:37.869Z,19.33
2023-03-28T19:25:05.084Z,19.33
2023-03-28T19:27:31.955Z,19.31
2023-03-28T19:29:58.516Z,19.30
2023-03-28T19:32:25.277Z,19.29
2023-03-28T19:34:52.153Z,19.26
2023-03-28T19:37:18.718Z,19.20
2023-03-28T19:39:45.269Z,19.17
2023-03-28T19:42:11.812Z,19.13
2023-03-28T19:44:39.320Z,19.09
2023-03-28T19:47:06.944Z,19.05
2023-03-28T19:49:33.588Z,19.02
2023-03-28T19:52:00.303Z,18.99
2023-03-28T19:54:27.031Z,18.95
2023-03-28T19:56:53.599Z,18.94
2023-03-28T19:59:20.270Z,18.91
2023-03-28T20:01:46.859Z,18.89
2023-03-28T20:04:14.007Z,18.87
2023-03-28T20:06:40.935Z,18.85
2023-03-28T20:09:07.505Z,18.82
2023-03-28T20:11:34.160Z,18.81
2023-03-28T20:14:00.851Z,18.80
2023-03-28T20:16:27.474Z,18.80
2023-03-28T20:18:55.796Z,18.81
2023-03-28T20:21:22.408Z,18.81
2023-03-28T20:23:50.171Z,18.79
2023-03-28T20:26:19.623Z,18.77
2023-03-28T20:28:49.833Z,18.74
2023-03-28T20:31:17.986Z,18.72
2023-03-28T20:33:45.173Z,18.69
2023-03-28T20:36:12.193Z,18.67
2023-03-28T20:38:38.939Z,18.63
2023-03-28T20:41:13.724Z,18.60
2023-03-28T20:43:46.802Z,18.58
2023-03-28T20:46:19.138Z,18.55
2023-03-28T20:48:52.136Z,18.52
2023-03-28T20:51:22.562Z,18.47
2023-03-28T20:53:54.995Z,18.44
2023-03-28T20:56:22.433Z,18.40
2023-03-28T20:58:50.583Z,18.35
2023-03-28T21:01:18.359Z,18.31
2023-03-28T21:03:53.747Z,18.25
2023-03-28T21:06:34.428Z,18.21
2023-03-28T21:09:04.643Z,18.18
2023-03-28T21:11:33.613Z,18.15
2023-03-28T21:14:01.128Z,18.12
2023-03-28T21:16:29.760Z,18.08
2023-03-28T21:18:56.667Z,18.06
2023-03-28T21:21:23.786Z,18.02
2023-03-28T21:23:50.468Z,17.98
2023-03-28T21:26:19.796Z,17.93
2023-03-28T21:28:46.848Z,17.90
2023-03-28T21:31:16.162Z,17.87
2023-03-28T21:33:42.998Z,17.85
2023-03-28T21:36:12.810Z,17.82
2023-03-28T21:38:40.271Z,17.79
2023-03-28T21:41:07.545Z,17.76
2023-03-28T21:43:34.831Z,17.73
2023-03-28T21:46:02.078Z,17.72
2023-03-28T21:48:28.933Z,17.68
2023-03-28T21:51:00.600Z,17.66
2023-03-28T21:53:33.041Z,17.64
2023-03-28T21:55:59.929Z,17.62
2023-03-28T21:58:29.278Z,17.60
2023-03-28T22:00:56.369Z,17.58
2023-03-28T22:03:23.437Z,17.55
2023-03-28T22:05:52.180Z,17.53
2023-03-28T22:08:19.479Z,17.50
2023-03-28T22:10:54.301Z,17.48
2023-03-28T22:13:21.371Z,17.48
2023-03-28T22:15:47.902Z,17.45
2023-03-28T22:18:15.631Z,17.42
2023-03-28T22:20:43.930Z,17.40
2023-03-28T22:23:11.045Z,17.39
2023-03-28T22:25:38.496Z,17.37
2023-03-28T22:28:10.375Z,17.37
2023-03-28T22:30:39.082Z,17.35
2023-03-28T22:33:09.658Z,17.32
2023-03-28T22:35:36.551Z,17.29
2023-03-28T22:38:04.140Z,17.28
2023-03-28T22:40:31.728Z,17.26
2023-03-28T22:42:58.313Z,17.25
2023-03-28T22:45:26.535Z,17.23
2023-03-28T22:47:54.440Z,17.23
2023-03-28T22:50:22.570Z,17.23
2023-03-28T22:52:52.878Z,17.21
2023-03-28T22:55:22.390Z,17.20
2023-03-28T22:57:51.702Z,17.19
2023-03-28T23:00:21.587Z,17.18
2023-03-28T23:02:48.972Z,17.17
2023-03-28T23:05:15.627Z,17.17
2023-03-28T23:07:42.199Z,17.16
2023-03-28T23:10:14.319Z,17.14
2023-03-28T23:12:42.290Z,17.14
2023-03-28T23:15:09.050Z,17.13
2023-03-28T23:17:35.940Z,17.13
2023-03-28T23:20:03.497Z,17.12
2023-03-28T23:22:30.030Z,17.12
2023-03-28T23:24:56.583Z,17.11
2023-03-28T23:27:23.098Z,17.10
2023-03-28T23:29:49.658Z,17.09
2023-03-28T23:32:16.236Z,17.08
2023-03-28T23:34:43.463Z,17.07
2023-03-28T23:37:10.087Z,17.06
2023-03-28T23:39:37.594Z,17.04
2023-03-28T23:42:04.202Z,17.04
2023-03-28T23:44:31.257Z,17.03
2023-03-28T23:46:58.016Z,17.02
2023-03-28T23:49:24.528Z,17.01
2023-03-28T23:51:51.054Z,16.99
2023-03-28T23:54:18.594Z,16.98
2023-03-28T23:56:46.009Z,16.98
2023-03-28T23:59:12.727Z,16.96
